createdAt,value
2018-08-07T00:00:23.118Z,48.50
2018-08-07T00:02:51.978Z,48.60
2018-08-07T00:07:50.562Z,48.70
2018-08-07T00:10:21.844Z,48.80
2018-08-07T00:12:50.024Z,49.40
2018-08-07T00:15:18.361Z,48.80
2018-08-07T00:17:46.556Z,48.90
2018-08-07T00:20:16.036Z,48.90
2018-08-07T00:22:44.748Z,49.00
2018-08-07T00:25:13.235Z,49.10
2018-08-07T00:27:42.135Z,49.20
2018-08-07T00:30:11.701Z,49.50
2018-08-07T00:32:39.901Z,49.50
2018-08-07T00:37:37.384Z,49.70
2018-08-07T00:40:07.369Z,49.90
2018-08-07T00:42:36.549Z,50.00
2018-08-07T00:45:05.961Z,50.00
2018-08-07T00:47:34.188Z,50.10
2018-08-07T00:50:02.413Z,50.20
2018-08-07T00:52:30.597Z,50.40
2018-08-07T00:57:26.734Z,50.60
2018-08-07T00:59:54.897Z,50.60
2018-08-07T01:02:23.088Z,50.80
2018-08-07T01:04:51.264Z,50.80
2018-08-07T01:07:19.456Z,50.90
2018-08-07T01:09:47.649Z,51.00
2018-08-07T01:12:15.846Z,51.10
2018-08-07T01:14:44.033Z,51.20
2018-08-07T01:17:12.217Z,51.20
2018-08-07T01:19:40.397Z,51.30
2018-08-07T01:22:08.577Z,51.40
2018-08-07T01:24:36.761Z,51.30
2018-08-07T01:27:05.023Z,51.20
2018-08-07T01:29:33.166Z,51.20
2018-08-07T01:32:01.366Z,51.20
2018-08-07T01:34:29.561Z,51.30
2018-08-07T01:36:57.763Z,51.20
2018-08-07T01:39:25.945Z,51.30
2018-08-07T01:41:54.126Z,51.50
2018-08-07T01:44:22.319Z,51.70
2018-08-07T01:46:50.540Z,51.70
2018-08-07T01:49:18.730Z,51.80
2018-08-07T01:51:47.110Z,51.80
2018-08-07T01:54:15.487Z,52.00
2018-08-07T01:56:43.673Z,52.10
2018-08-07T01:59:11.884Z,52.20
2018-08-07T02:01:40.074Z,52.40
2018-08-07T02:04:08.281Z,52.50
2018-08-07T02:06:36.540Z,52.50
2018-08-07T02:09:06.544Z,52.50
2018-08-07T02:11:34.920Z,52.50
2018-08-07T02:14:03.138Z,52.40
2018-08-07T02:16:31.323Z,52.30
2018-08-07T02:18:59.524Z,52.30
2018-08-07T02:21:27.725Z,52.20
2018-08-07T02:23:55.903Z,52.10
2018-08-07T02:26:24.096Z,52.30
2018-08-07T02:28:52.344Z,52.30
2018-08-07T02:31:20.481Z,52.50
2018-08-07T02:33:48.655Z,52.60
2018-08-07T02:36:16.903Z,52.70
2018-08-07T02:38:45.101Z,52.70
2018-08-07T02:41:13.320Z,52.80
2018-08-07T02:43:41.516Z,53.00
2018-08-07T02:46:09.928Z,53.10
2018-08-07T02:48:38.130Z,53.20
2018-08-07T02:51:06.381Z,53.30
2018-08-07T02:53:34.578Z,53.50
2018-08-07T02:56:02.788Z,53.70
2018-08-07T02:58:30.985Z,53.70
2018-08-07T03:00:59.172Z,53.70
2018-08-07T03:03:27.356Z,53.80
2018-08-07T03:05:55.557Z,54.00
2018-08-07T03:08:23.748Z,54.10
2018-08-07T03:10:51.927Z,54.20
2018-08-07T03:13:20.112Z,54.30
2018-08-07T03:15:48.302Z,54.30
2018-08-07T03:18:16.503Z,54.40
2018-08-07T03:20:44.689Z,54.60
2018-08-07T03:23:12.911Z,54.60
2018-08-07T03:25:41.092Z,55.20
2018-08-07T03:28:09.275Z,54.60
2018-08-07T03:30:37.468Z,54.60
2018-08-07T03:33:06.135Z,54.70
2018-08-07T03:35:34.339Z,54.90
2018-08-07T03:38:02.541Z,55.00
2018-08-07T03:40:30.710Z,55.00
2018-08-07T03:42:58.887Z,55.10
2018-08-07T03:45:27.070Z,55.30
2018-08-07T03:47:55.276Z,55.30
2018-08-07T03:50:23.464Z,55.30
2018-08-07T03:52:51.664Z,55.40
2018-08-07T03:55:20.160Z,55.90
2018-08-07T03:57:48.644Z,55.50
2018-08-07T04:00:18.974Z,55.50
2018-08-07T04:02:48.243Z,55.50
2018-08-07T04:05:16.570Z,55.40
2018-08-07T04:07:45.104Z,55.50
2018-08-07T04:10:14.757Z,55.30
2018-08-07T04:12:43.075Z,55.30
2018-08-07T04:15:12.947Z,55.40
2018-08-07T04:17:41.754Z,55.60
2018-08-07T04:20:12.564Z,55.60
2018-08-07T04:22:41.031Z,55.50
2018-08-07T04:25:09.275Z,55.60
2018-08-07T04:27:37.501Z,55.60
2018-08-07T04:30:09.634Z,55.40
2018-08-07T04:32:37.896Z,55.40
2018-08-07T04:35:06.433Z,55.40
2018-08-07T04:37:35.020Z,55.50
2018-08-07T04:40:03.586Z,55.60
2018-08-07T04:42:32.204Z,55.50
2018-08-07T04:45:00.442Z,55.60
2018-08-07T04:47:28.904Z,55.60
2018-08-07T04:49:57.268Z,55.60
2018-08-07T04:52:25.708Z,55.60
2018-08-07T04:54:54.104Z,55.60
2018-08-07T04:57:23.500Z,55.60
2018-08-07T04:59:52.044Z,55.60
2018-08-07T05:02:20.887Z,55.50
2018-08-07T05:04:49.190Z,55.30
2018-08-07T05:09:45.524Z,55.20
2018-08-07T05:12:13.980Z,55.20
2018-08-07T05:14:42.520Z,55.20
2018-08-07T05:17:11.476Z,55.20
2018-08-07T05:19:39.727Z,55.10
2018-08-07T05:22:08.027Z,55.20
2018-08-07T05:24:36.211Z,55.10
2018-08-07T05:29:32.391Z,54.90
2018-08-07T05:32:00.589Z,54.70
2018-08-07T05:34:28.880Z,54.60
2018-08-07T05:36:57.092Z,54.40
2018-08-07T05:39:25.412Z,54.30
2018-08-07T05:41:53.780Z,54.10
2018-08-07T05:44:22.090Z,53.90
2018-08-07T05:46:50.416Z,53.70
2018-08-07T05:49:18.675Z,53.70
2018-08-07T05:51:46.957Z,53.50
2018-08-07T05:54:15.466Z,53.60
2018-08-07T05:56:44.006Z,53.50
2018-08-07T05:59:12.368Z,53.30
2018-08-07T06:01:41.573Z,53.20
2018-08-07T06:04:10.008Z,53.20
2018-08-07T06:06:39.169Z,53.10
2018-08-07T06:09:08.221Z,53.00
2018-08-07T06:11:36.576Z,52.80
2018-08-07T06:14:05.125Z,52.90
2018-08-07T06:16:33.420Z,52.90
2018-08-07T06:19:02.000Z,52.70
2018-08-07T06:21:30.636Z,52.60
2018-08-07T06:23:58.916Z,52.40
2018-08-07T06:26:27.163Z,52.30
2018-08-07T06:28:55.458Z,52.30
2018-08-07T06:31:23.857Z,52.20
2018-08-07T06:33:52.169Z,52.10
2018-08-07T06:36:20.722Z,52.00
2018-08-07T06:38:49.068Z,51.90
2018-08-07T06:41:17.580Z,52.20
2018-08-07T06:43:46.052Z,51.70
2018-08-07T06:46:14.575Z,51.60
2018-08-07T06:48:43.050Z,51.50
2018-08-07T06:51:11.435Z,51.40
2018-08-07T06:53:39.727Z,51.20
2018-08-07T06:56:07.993Z,51.10
2018-08-07T06:58:36.193Z,50.90
2018-08-07T07:01:04.414Z,50.80
2018-08-07T07:03:32.591Z,50.70
2018-08-07T07:08:28.753Z,50.60
2018-08-07T07:10:56.952Z,50.40
2018-08-07T07:13:25.144Z,50.40
2018-08-07T07:15:53.485Z,50.90
2018-08-07T07:18:21.675Z,50.30
2018-08-07T07:20:49.905Z,50.40
2018-08-07T07:23:18.164Z,50.40
2018-08-07T07:25:46.628Z,50.30
2018-08-07T07:28:14.833Z,50.20
2018-08-07T07:33:11.010Z,50.00
2018-08-07T07:35:39.190Z,49.90
2018-08-07T07:38:07.377Z,49.90
2018-08-07T07:40:35.594Z,49.80
2018-08-07T07:43:04.049Z,49.80
2018-08-07T07:45:32.257Z,49.70
2018-08-07T07:50:28.464Z,49.60
2018-08-07T07:52:56.700Z,49.70
2018-08-07T07:55:24.920Z,49.60
2018-08-07T07:57:53.152Z,49.50
2018-08-07T08:00:23.258Z,49.30
2018-08-07T08:02:51.711Z,49.20
2018-08-07T08:05:20.608Z,49.10
2018-08-07T08:07:48.737Z,49.10
2018-08-07T08:10:16.945Z,49.00
2018-08-07T08:12:45.135Z,48.90
2018-08-07T08:15:15.331Z,48.90
2018-08-07T08:17:44.452Z,48.80
2018-08-07T08:20:16.067Z,48.70
2018-08-07T08:22:44.264Z,48.60
2018-08-07T08:25:12.508Z,48.60
2018-08-07T08:27:40.932Z,48.50
2018-08-07T08:30:12.452Z,48.50
2018-08-07T08:32:40.700Z,48.40
2018-08-07T08:35:11.547Z,48.30
2018-08-07T08:37:40.096Z,48.30
2018-08-07T08:40:10.296Z,48.20
2018-08-07T08:42:39.497Z,48.20
2018-08-07T08:45:10.759Z,48.20
2018-08-07T08:47:39.221Z,48.20
2018-08-07T08:50:09.453Z,48.10
2018-08-07T08:52:37.715Z,48.00
2018-08-07T08:55:06.333Z,47.90
2018-08-07T08:57:34.914Z,47.90
2018-08-07T09:00:03.132Z,47.90
2018-08-07T09:02:31.392Z,48.00
2018-08-07T09:04:59.636Z,48.00
2018-08-07T09:07:27.869Z,47.90
2018-08-07T09:09:56.069Z,48.40
2018-08-07T09:12:24.260Z,47.70
2018-08-07T09:14:52.468Z,47.70
2018-08-07T09:17:20.691Z,47.50
2018-08-07T09:22:17.032Z,47.40
2018-08-07T09:24:45.237Z,47.30
2018-08-07T09:27:13.439Z,47.10
2018-08-07T09:29:41.647Z,47.00
2018-08-07T09:32:09.863Z,46.90
2018-08-07T09:34:38.062Z,46.90
2018-08-07T09:37:06.250Z,46.90
2018-08-07T09:39:34.497Z,46.70
2018-08-07T09:42:02.657Z,46.50
2018-08-07T09:44:30.848Z,46.30
2018-08-07T09:46:59.105Z,46.30
2018-08-07T09:49:27.283Z,46.20
2018-08-07T09:51:55.472Z,46.10
2018-08-07T09:54:24.239Z,46.00
2018-08-07T09:56:52.403Z,45.80
2018-08-07T09:59:20.643Z,45.70
2018-08-07T10:01:54.194Z,45.60
2018-08-07T10:04:22.391Z,45.50
2018-08-07T10:06:50.612Z,45.60
2018-08-07T10:09:18.835Z,45.60
2018-08-07T10:11:47.069Z,45.40
2018-08-07T10:14:15.260Z,45.40
2018-08-07T10:16:43.460Z,45.10
2018-08-07T10:19:11.689Z,45.00
2018-08-07T10:21:39.904Z,44.80
2018-08-07T10:24:08.163Z,44.60
2018-08-07T10:26:36.377Z,44.40
2018-08-07T10:29:04.580Z,44.40
2018-08-07T10:34:00.757Z,44.20
2018-08-07T10:36:29.130Z,44.20
2018-08-07T10:38:57.305Z,44.20
2018-08-07T10:41:25.539Z,44.40
2018-08-07T10:43:53.906Z,45.10
2018-08-07T10:46:22.080Z,44.60
2018-08-07T10:48:50.292Z,44.60
2018-08-07T10:51:18.501Z,44.50
2018-08-07T10:53:46.683Z,44.30
2018-08-07T10:56:14.889Z,43.90
2018-08-07T10:58:43.126Z,43.60
2018-08-07T11:01:11.351Z,43.90
2018-08-07T11:06:07.517Z,43.10
2018-08-07T11:08:35.900Z,42.90
2018-08-07T11:11:04.147Z,42.90
2018-08-07T11:13:32.331Z,42.80
2018-08-07T11:16:00.529Z,42.60
2018-08-07T11:18:28.720Z,42.20
2018-08-07T11:20:56.921Z,41.90
2018-08-07T11:23:25.164Z,41.80
2018-08-07T11:25:53.559Z,41.70
2018-08-07T11:28:21.755Z,41.70
2018-08-07T11:30:49.957Z,41.50
2018-08-07T11:33:18.148Z,41.40
2018-08-07T11:35:46.355Z,41.20
2018-08-07T11:38:14.535Z,41.10
2018-08-07T11:40:42.732Z,41.00
2018-08-07T11:43:10.953Z,40.80
2018-08-07T11:45:39.144Z,40.80
2018-08-07T11:48:07.359Z,40.80
2018-08-07T11:50:35.566Z,40.50
2018-08-07T11:53:04.259Z,40.10
2018-08-07T11:55:32.458Z,39.90
2018-08-07T11:58:00.641Z,39.30
2018-08-07T12:00:34.191Z,38.90
2018-08-07T12:03:02.596Z,38.50
2018-08-07T12:05:31.063Z,38.20
2018-08-07T12:07:59.279Z,38.00
2018-08-07T12:10:27.823Z,37.90
2018-08-07T12:12:56.233Z,37.60
2018-08-07T12:15:25.271Z,37.50
2018-08-07T12:17:53.769Z,37.30
2018-08-07T12:20:21.959Z,37.00
2018-08-07T12:22:51.093Z,36.70
2018-08-07T12:25:19.937Z,36.40
2018-08-07T12:27:48.206Z,36.20
2018-08-07T12:30:21.377Z,36.10
2018-08-07T12:32:49.593Z,36.10
2018-08-07T12:35:17.802Z,36.00
2018-08-07T12:37:46.376Z,36.10
2018-08-07T12:40:20.011Z,36.20
2018-08-07T12:42:48.436Z,36.20
2018-08-07T12:45:16.642Z,36.30
2018-08-07T12:47:45.248Z,36.30
2018-08-07T12:50:14.435Z,36.20
2018-08-07T12:52:42.757Z,36.10
2018-08-07T12:55:13.460Z,36.10
2018-08-07T12:57:41.691Z,36.10
2018-08-07T13:00:16.968Z,36.20
2018-08-07T13:02:45.277Z,36.40
2018-08-07T13:05:13.652Z,37.10
2018-08-07T13:07:41.833Z,38.20
2018-08-07T13:10:13.017Z,40.10
2018-08-07T13:12:41.839Z,42.30
2018-08-07T13:15:42.841Z,44.90
2018-08-07T13:18:11.031Z,48.30
2018-08-07T13:20:39.225Z,49.00
2018-08-07T13:23:07.630Z,49.70
2018-08-07T13:25:35.832Z,50.00
2018-08-07T13:28:04.024Z,50.30
2018-08-07T13:30:32.250Z,49.60
2018-08-07T13:33:00.431Z,48.70
2018-08-07T13:35:28.627Z,48.00
2018-08-07T13:37:56.824Z,47.20
2018-08-07T13:40:25.431Z,46.30
2018-08-07T13:42:53.864Z,45.40
2018-08-07T13:45:23.341Z,44.80
2018-08-07T13:47:51.575Z,44.20
2018-08-07T13:50:21.200Z,43.60
2018-08-07T13:52:50.065Z,42.90
2018-08-07T13:55:19.184Z,42.30
2018-08-07T13:57:47.665Z,41.70
2018-08-07T14:00:22.699Z,41.30
2018-08-07T14:02:51.502Z,41.00
2018-08-07T14:05:20.475Z,40.80
2018-08-07T14:07:50.000Z,40.70
2018-08-07T14:10:18.997Z,40.80
2018-08-07T14:12:47.256Z,40.60
2018-08-07T14:15:16.456Z,40.50
2018-08-07T14:17:44.958Z,40.50
2018-08-07T14:20:14.024Z,40.50
2018-08-07T14:22:42.535Z,40.50
2018-08-07T14:25:20.848Z,40.50
2018-08-07T14:27:49.091Z,40.30
2018-08-07T14:30:19.653Z,40.00
2018-08-07T14:32:47.940Z,39.70
2018-08-07T14:35:16.142Z,39.60
2018-08-07T14:37:45.397Z,39.70
2018-08-07T14:40:15.317Z,39.90
2018-08-07T14:42:44.735Z,39.90
2018-08-07T14:45:14.006Z,39.80
2018-08-07T14:47:42.925Z,39.80
2018-08-07T14:50:13.523Z,39.60
2018-08-07T14:52:41.728Z,39.60
2018-08-07T14:55:11.015Z,39.40
2018-08-07T14:57:39.689Z,39.10
2018-08-07T15:00:10.409Z,38.90
2018-08-07T15:02:38.711Z,38.80
2018-08-07T15:05:07.124Z,38.60
2018-08-07T15:07:35.525Z,38.30
2018-08-07T15:10:04.823Z,38.20
2018-08-07T15:12:33.165Z,38.10
2018-08-07T15:15:01.332Z,38.00
2018-08-07T15:17:29.577Z,37.80
2018-08-07T15:19:57.808Z,37.70
2018-08-07T15:22:26.088Z,37.80
2018-08-07T15:24:54.284Z,37.90
2018-08-07T15:27:22.504Z,37.60
2018-08-07T15:29:50.701Z,37.20
2018-08-07T15:32:18.879Z,36.80
2018-08-07T15:34:47.120Z,37.20
2018-08-07T15:37:15.336Z,38.20
2018-08-07T15:39:43.543Z,38.50
2018-08-07T15:42:11.772Z,38.00
2018-08-07T15:44:39.995Z,38.20
2018-08-07T15:47:08.272Z,38.20
2018-08-07T15:49:36.523Z,38.20
2018-08-07T15:52:04.767Z,38.30
2018-08-07T15:54:32.971Z,37.80
2018-08-07T15:57:01.170Z,36.90
2018-08-07T15:59:29.376Z,36.30
2018-08-07T16:01:57.682Z,35.80
2018-08-07T16:04:25.868Z,35.30
2018-08-07T16:06:54.081Z,35.00
2018-08-07T16:09:22.395Z,34.60
2018-08-07T16:11:50.727Z,34.50
2018-08-07T16:14:18.976Z,34.30
2018-08-07T16:16:47.211Z,34.30
2018-08-07T16:19:15.387Z,34.10
2018-08-07T16:21:43.581Z,34.10
2018-08-07T16:24:12.020Z,34.10
2018-08-07T16:26:40.243Z,34.20
2018-08-07T16:29:08.553Z,34.20
2018-08-07T16:31:36.777Z,34.30
2018-08-07T16:34:05.348Z,34.30
2018-08-07T16:36:33.528Z,34.40
2018-08-07T16:39:01.729Z,34.90
2018-08-07T16:41:30.031Z,35.10
2018-08-07T16:43:58.171Z,35.10
2018-08-07T16:46:26.399Z,35.00
2018-08-07T16:48:54.621Z,34.80
2018-08-07T16:51:22.913Z,34.50
2018-08-07T16:53:51.096Z,34.20
2018-08-07T16:56:19.293Z,34.10
2018-08-07T16:58:47.513Z,34.50
2018-08-07T17:01:15.733Z,33.80
2018-08-07T17:03:43.924Z,33.50
2018-08-07T17:06:12.207Z,33.50
2018-08-07T17:08:40.493Z,33.50
2018-08-07T17:11:08.797Z,33.50
2018-08-07T17:13:36.997Z,33.60
2018-08-07T17:16:05.468Z,33.70
2018-08-07T17:18:33.673Z,33.80
2018-08-07T17:21:01.949Z,33.80
2018-08-07T17:23:30.175Z,33.80
2018-08-07T17:25:58.369Z,33.70
2018-08-07T17:28:26.568Z,33.80
2018-08-07T17:30:54.801Z,33.90
2018-08-07T17:33:23.054Z,34.10
2018-08-07T17:35:51.267Z,34.20
2018-08-07T17:38:19.467Z,34.30
2018-08-07T17:40:47.664Z,34.30
2018-08-07T17:43:15.836Z,34.50
2018-08-07T17:45:44.041Z,34.50
2018-08-07T17:48:12.460Z,34.70
2018-08-07T17:50:40.640Z,35.10
2018-08-07T17:53:08.856Z,35.10
2018-08-07T17:55:37.035Z,36.40
2018-08-07T17:58:05.276Z,36.80
2018-08-07T18:00:33.475Z,36.60
2018-08-07T18:03:01.809Z,36.50
2018-08-07T18:05:30.008Z,36.40
2018-08-07T18:07:58.596Z,36.20
2018-08-07T18:10:26.778Z,36.20
2018-08-07T18:12:55.047Z,36.20
2018-08-07T18:15:23.721Z,36.30
2018-08-07T18:17:52.307Z,36.40
2018-08-07T18:20:22.475Z,36.40
2018-08-07T18:22:50.669Z,36.40
2018-08-07T18:25:18.886Z,36.50
2018-08-07T18:27:47.060Z,36.60
2018-08-07T18:30:16.952Z,36.70
2018-08-07T18:32:45.396Z,36.80
2018-08-07T18:35:15.255Z,37.00
2018-08-07T18:37:43.475Z,37.70
2018-08-07T18:40:11.667Z,38.50
2018-08-07T18:42:39.863Z,39.10
2018-08-07T18:45:09.992Z,40.00
2018-08-07T18:47:38.875Z,40.80
2018-08-07T18:50:08.188Z,41.70
2018-08-07T18:52:36.459Z,42.20
2018-08-07T18:55:06.752Z,42.30
2018-08-07T18:57:34.952Z,42.20
2018-08-07T19:00:03.217Z,42.50
2018-08-07T19:02:31.396Z,42.70
2018-08-07T19:04:59.580Z,42.50
2018-08-07T19:07:27.859Z,42.70
2018-08-07T19:09:56.068Z,43.00
2018-08-07T19:12:24.262Z,43.40
2018-08-07T19:14:52.449Z,43.60
2018-08-07T19:17:20.675Z,43.40
2018-08-07T19:19:48.903Z,43.30
2018-08-07T19:22:17.121Z,43.40
2018-08-07T19:24:45.547Z,43.00
2018-08-07T19:27:13.728Z,43.30
2018-08-07T19:29:42.040Z,43.60
2018-08-07T19:32:10.247Z,43.00
2018-08-07T19:34:38.519Z,42.70
2018-08-07T19:37:07.071Z,42.20
2018-08-07T19:39:35.329Z,42.00
2018-08-07T19:42:03.545Z,41.90
2018-08-07T19:44:31.755Z,42.00
2018-08-07T19:47:00.044Z,42.10
2018-08-07T19:49:28.274Z,42.30
2018-08-07T19:51:56.472Z,42.50
2018-08-07T19:54:24.671Z,42.60
2018-08-07T19:56:52.864Z,42.90
2018-08-07T19:59:21.095Z,43.60
2018-08-07T20:01:49.307Z,43.90
2018-08-07T20:04:17.495Z,43.40
2018-08-07T20:06:45.699Z,43.80
2018-08-07T20:09:13.879Z,43.90
2018-08-07T20:11:42.085Z,44.00
2018-08-07T20:14:10.281Z,44.00
2018-08-07T20:16:38.479Z,44.10
2018-08-07T20:19:06.656Z,44.30
2018-08-07T20:21:34.911Z,44.40
2018-08-07T20:24:03.161Z,44.30
2018-08-07T20:26:31.415Z,44.40
2018-08-07T20:28:59.601Z,44.30
2018-08-07T20:31:27.802Z,44.50
2018-08-07T20:33:55.993Z,44.60
2018-08-07T20:36:24.196Z,44.60
2018-08-07T20:38:52.404Z,44.70
2018-08-07T20:41:20.590Z,45.30
2018-08-07T20:43:48.776Z,44.80
2018-08-07T20:46:16.976Z,44.80
2018-08-07T20:48:45.181Z,45.10
2018-08-07T20:51:13.396Z,45.10
2018-08-07T20:53:41.617Z,45.10
2018-08-07T20:56:09.805Z,45.10
2018-08-07T20:58:38.000Z,45.20
2018-08-07T21:01:06.198Z,45.20
2018-08-07T21:03:34.411Z,45.30
2018-08-07T21:06:02.628Z,45.40
2018-08-07T21:08:30.836Z,45.60
2018-08-07T21:10:59.020Z,45.70
2018-08-07T21:13:27.224Z,45.90
2018-08-07T21:15:55.437Z,46.00
2018-08-07T21:18:23.687Z,46.20
2018-08-07T21:20:51.892Z,46.20
2018-08-07T21:23:20.093Z,46.40
2018-08-07T21:25:48.271Z,46.50
2018-08-07T21:28:16.463Z,46.60
2018-08-07T21:30:44.671Z,46.70
2018-08-07T21:33:12.911Z,46.90
2018-08-07T21:35:41.111Z,47.00
2018-08-07T21:38:09.309Z,47.20
2018-08-07T21:40:37.484Z,47.30
2018-08-07T21:43:05.975Z,47.40
2018-08-07T21:45:34.153Z,47.50
2018-08-07T21:48:02.404Z,47.70
2018-08-07T21:50:30.616Z,48.00
2018-08-07T21:52:58.799Z,48.20
2018-08-07T21:55:27.031Z,48.30
2018-08-07T21:57:55.273Z,48.40
2018-08-07T22:00:56.111Z,48.60
2018-08-07T22:03:24.315Z,48.70
2018-08-07T22:05:52.521Z,49.00
2018-08-07T22:08:20.712Z,49.10
2018-08-07T22:10:48.909Z,49.30
2018-08-07T22:13:17.147Z,49.50
2018-08-07T22:15:45.362Z,49.50
2018-08-07T22:18:13.541Z,49.60
2018-08-07T22:20:41.768Z,49.70
2018-08-07T22:23:09.966Z,49.90
2018-08-07T22:25:38.279Z,49.90
2018-08-07T22:28:06.560Z,49.80
2018-08-07T22:30:34.847Z,49.90
2018-08-07T22:33:03.042Z,50.00
2018-08-07T22:35:31.250Z,50.10
2018-08-07T22:37:59.448Z,50.20
2018-08-07T22:40:28.012Z,50.30
2018-08-07T22:42:56.199Z,50.40
2018-08-07T22:45:24.398Z,50.50
2018-08-07T22:47:52.600Z,50.60
2018-08-07T22:50:20.834Z,50.70
2018-08-07T22:52:49.057Z,50.80
2018-08-07T22:55:18.776Z,50.90
2018-08-07T22:57:46.979Z,50.90
2018-08-07T23:00:16.640Z,50.90
2018-08-07T23:02:51.151Z,50.90
2018-08-07T23:05:19.708Z,51.00
2018-08-07T23:07:47.922Z,51.10
2018-08-07T23:10:18.164Z,51.10
2018-08-07T23:12:46.355Z,51.20
2018-08-07T23:15:16.561Z,51.20
2018-08-07T23:17:45.129Z,51.20
2018-08-07T23:20:14.713Z,51.20
2018-08-07T23:22:42.907Z,51.30
2018-08-07T23:25:11.597Z,51.40
2018-08-07T23:27:39.800Z,51.60
2018-08-07T23:30:13.814Z,51.70
2018-08-07T23:32:42.224Z,51.80
2018-08-07T23:35:10.852Z,52.00
2018-08-07T23:37:39.059Z,52.10
2018-08-07T23:40:08.960Z,52.20
2018-08-07T23:42:37.176Z,52.20
2018-08-07T23:45:06.180Z,52.30
2018-08-07T23:47:34.579Z,52.30
2018-08-07T23:50:02.854Z,52.20
2018-08-07T23:52:31.263Z,52.50
2018-08-07T23:54:59.716Z,52.50
2018-08-07T23:57:27.912Z,52.50
2018-08-07T23:59:56.105Z,52.70
